Time;durP1;ratioP1;P1;durP2;ratioP2;P2;SDS_P1;SDS_P2;PMS_P1;PMS_P2;Temp;Humidity;BMP_temperature;BMP_pressure;BME280_temperature;BME280_humidity;BME280_pressure;Samples;Min_cycle;Max_cycle;Signal;HPM_P1;HPM_P2
2023/07/26 00:06:14;;;;;;;12.40;2.40;;;;;;;15.78;66.64;100149.28;5016087;28;20451;-81
2023/07/26 00:09:08;;;;;;;3.83;1.77;;;;;;;15.65;67.22;100155.13;5007224;28;20484;-81
2023/07/26 00:12:27;;;;;;;6.70;2.37;;;;;;;15.62;67.69;100156.50;4954095;28;20499;-80
2023/07/26 00:15:48;;;;;;;10.63;3.43;;;;;;;15.44;69.39;100164.13;5005238;28;20974;-80
2023/07/26 00:19:01;;;;;;;4.60;2.00;;;;;;;15.31;70.71;100167.16;5086276;28;20508;-81
2023/07/26 00:22:20;;;;;;;2.93;1.93;;;;;;;15.13;72.18;100171.84;5086778;28;20420;-81
2023/07/26 00:25:20;;;;;;;4.87;2.13;;;;;;;15.13;72.25;100171.00;5077554;28;20430;-81
2023/07/26 00:28:10;;;;;;;3.50;1.53;;;;;;;14.98;72.51;100165.31;5083374;28;20922;-81
2023/07/26 00:30:59;;;;;;;3.67;2.10;;;;;;;14.93;72.61;100168.78;5082445;28;20566;-81
2023/07/26 00:37:45;;;;;;;2.77;1.83;;;;;;;14.83;72.81;100171.34;5064107;28;20535;-80
2023/07/26 00:44:51;;;;;;;3.20;2.30;;;;;;;14.64;73.13;100175.38;5076566;28;20443;-81
2023/07/26 00:48:04;;;;;;;4.13;2.10;;;;;;;14.54;72.88;100175.19;5089896;28;20408;-81
2023/07/26 00:58:14;;;;;;;5.97;2.53;;;;;;;14.21;74.98;100176.75;5056158;28;20435;-81
2023/07/26 01:09:54;;;;;;;5.50;2.20;;;;;;;14.01;76.42;100189.13;4904307;29;20443;-82
2023/07/26 01:12:36;;;;;;;7.20;2.57;;;;;;;14.02;76.48;100188.91;5035704;28;20457;-81
2023/07/26 01:15:27;;;;;;;13.13;2.73;;;;;;;13.96;76.83;100189.84;5128578;28;20427;-82
2023/07/26 01:22:30;;;;;;;9.67;2.40;;;;;;;13.77;78.90;100196.53;5095276;28;20505;-80
2023/07/26 01:26:08;;;;;;;3.53;2.20;;;;;;;13.73;78.78;100189.91;5062543;28;20502;-80
2023/07/26 01:28:45;;;;;;;5.73;2.30;;;;;;;13.64;79.43;100203.06;5063176;28;20517;-79
2023/07/26 01:35:28;;;;;;;3.23;2.20;;;;;;;13.51;79.58;100191.63;5031038;28;20457;-79
2023/07/26 01:39:11;;;;;;;2.93;1.93;;;;;;;13.39;80.59;100199.78;5084553;28;20425;-81
2023/07/26 01:47:22;;;;;;;4.13;2.50;;;;;;;13.23;82.06;100195.88;5063267;28;20527;-81
2023/07/26 01:50:57;;;;;;;8.20;2.30;;;;;;;13.23;81.85;100195.03;5075941;28;20408;-81
2023/07/26 01:55:04;;;;;;;7.67;2.70;;;;;;;13.20;81.97;100193.63;5034937;28;20490;-81
2023/07/26 01:58:28;;;;;;;5.47;1.80;;;;;;;13.27;81.85;100199.78;5040362;28;20447;-82
2023/07/26 02:06:03;;;;;;;5.00;2.53;;;;;;;13.25;82.57;100210.06;5009380;28;20508;-81
2023/07/26 02:13:43;;;;;;;4.17;2.10;;;;;;;13.20;82.60;100212.66;5023549;28;20527;-80
2023/07/26 02:32:35;;;;;;;4.00;2.00;;;;;;;12.97;84.12;100223.47;4812023;29;20942;-82
2023/07/26 02:52:36;;;;;;;6.60;2.57;;;;;;;12.91;85.51;100243.41;4798098;29;21149;-80
2023/07/26 02:55:52;;;;;;;3.27;2.43;;;;;;;12.81;86.08;100237.72;4824175;29;20445;-80
2023/07/26 02:59:20;;;;;;;4.40;2.57;;;;;;;12.76;86.61;100240.31;4967008;29;20431;-80
2023/07/26 03:03:12;;;;;;;8.53;2.47;;;;;;;12.68;87.05;100246.06;4929990;29;20445;-81
2023/07/26 03:11:29;;;;;;;3.50;3.00;;;;;;;12.66;87.74;100259.88;4945876;29;20417;-80
2023/07/26 03:14:59;;;;;;;3.60;2.47;;;;;;;12.62;88.37;100256.78;4887564;29;20474;-80
2023/07/26 03:42:12;;;;;;;7.23;2.77;;;;;;;12.54;90.67;100289.66;4951848;28;20394;-81
2023/07/26 03:45:30;;;;;;;5.83;3.10;;;;;;;12.58;90.28;100290.88;4951872;28;20544;-81
2023/07/26 03:53:50;;;;;;;6.77;3.43;;;;;;;12.64;89.99;100311.66;5043042;28;20512;-81
2023/07/26 04:18:02;;;;;;;7.10;3.40;;;;;;;13.24;87.51;100321.69;4859045;29;20477;-81
2023/07/26 04:33:28;;;;;;;5.93;3.03;;;;;;;13.65;86.29;100337.91;4939110;29;20463;-81
2023/07/26 04:37:26;;;;;;;;;;;;;;;;;;;;;
2023/07/26 04:40:24;;;;;;;6.43;2.90;;;;;;;13.80;84.81;100337.44;4907160;29;20434;-82
2023/07/26 04:44:34;;;;;;;;;;;;;;;;;;;;;
2023/07/26 04:52:02;;;;;;;6.47;3.70;;;;;;;14.52;81.11;100332.53;5029021;28;20559;-81
2023/07/26 05:30:52;;;;;;;5.53;3.00;;;;;;;15.71;73.66;100349.69;4873800;29;20517;-81
2023/07/26 05:34:37;;;;;;;;;;;;;;;;;;;;;
2023/07/26 05:38:38;;;;;;;8.90;3.57;;;;;;;15.44;76.03;100349.50;4951679;29;20520;-81
2023/07/26 05:58:33;;;;;;;7.20;2.60;;;;;;;15.50;76.67;100362.13;4853967;29;20512;-82
2023/07/26 06:01:51;;;;;;;8.63;3.30;;;;;;;15.84;74.36;100373.91;4834882;29;20524;-81
2023/07/26 06:25:02;;;;;;;4.80;2.53;;;;;;;16.72;72.19;100382.00;4997700;28;20500;-83
2023/07/26 06:28:24;;;;;;;4.63;2.70;;;;;;;17.02;69.77;100380.69;4935038;28;20513;-81
2023/07/26 06:34:44;;;;;;;5.40;2.90;;;;;;;17.39;68.46;100373.41;5071640;28;20481;-82
2023/07/26 06:43:52;;;;;;;6.40;2.30;;;;;;;17.04;68.32;100378.53;5049407;28;20418;-82
2023/07/26 06:46:38;;;;;;;4.60;2.33;;;;;;;17.11;67.25;100376.41;5080057;28;20658;-81
2023/07/26 06:49:59;;;;;;;5.20;2.23;;;;;;;17.08;67.70;100366.00;5076519;28;20524;-82
2023/07/26 06:53:07;;;;;;;7.23;2.17;;;;;;;16.93;68.05;100377.59;5087279;28;20550;-81
2023/07/26 06:56:51;;;;;;;2.70;1.73;;;;;;;17.41;67.56;100379.47;5063385;28;20406;-82
2023/07/26 07:07:28;;;;;;;9.63;2.60;;;;;;;18.14;63.39;100388.81;5063969;28;20530;-82
2023/07/26 07:14:45;;;;;;;8.40;4.33;;;;;;;18.39;62.17;100389.00;5087033;28;20432;-81
2023/07/26 07:17:35;;;;;;;2.40;2.13;;;;;;;18.43;62.60;100394.75;5090161;28;20417;-82
2023/07/26 07:21:20;;;;;;;10.03;2.53;;;;;;;18.39;62.37;100393.63;5018181;28;20398;-80
2023/07/26 07:28:05;;;;;;;3.50;2.37;;;;;;;18.56;61.99;100386.06;4998293;28;20451;-83
2023/07/26 07:31:25;;;;;;;3.07;1.80;;;;;;;18.78;61.33;100396.88;4984553;28;20507;-81
2023/07/26 07:34:34;;;;;;;2.67;1.80;;;;;;;18.31;62.42;100400.44;5013057;28;20416;-81
2023/07/26 07:37:06;;;;;;;5.03;2.87;;;;;;;18.47;62.67;100393.94;5017265;28;20411;-81
2023/07/26 07:39:36;;;;;;;4.10;2.10;;;;;;;18.59;62.01;100394.56;5005162;28;21032;-82
2023/07/26 07:42:10;;;;;;;4.03;2.00;;;;;;;18.40;61.75;100403.47;5008599;28;20436;-82
2023/07/26 07:44:42;;;;;;;2.87;2.10;;;;;;;18.34;61.47;100397.19;5012554;28;20484;-81
2023/07/26 07:47:15;;;;;;;7.03;2.47;;;;;;;18.39;61.78;100394.47;5004976;28;20503;-81
2023/07/26 07:49:47;;;;;;;4.43;2.00;;;;;;;18.81;61.32;100399.91;5007445;28;20867;-82
2023/07/26 07:52:16;;;;;;;4.80;1.57;;;;;;;19.10;59.77;100400.25;5021140;28;20438;-83
2023/07/26 07:54:49;;;;;;;2.67;1.40;;;;;;;19.47;58.53;100398.16;4987885;28;21027;-81
2023/07/26 07:57:21;;;;;;;3.73;1.83;;;;;;;19.79;56.83;100406.16;5027253;28;20436;-82
2023/07/26 07:59:51;;;;;;;3.20;1.60;;;;;;;19.82;55.99;100408.34;5082338;28;20417;-83
2023/07/26 08:02:28;;;;;;;4.33;2.50;;;;;;;19.95;55.54;100405.03;5090203;28;20418;-82
2023/07/26 08:04:59;;;;;;;4.77;1.77;;;;;;;19.57;55.01;100415.72;5080829;28;20829;-82
2023/07/26 08:07:29;;;;;;;4.07;1.70;;;;;;;19.28;55.10;100407.97;5089778;28;20465;-81
2023/07/26 08:10:06;;;;;;;6.37;1.87;;;;;;;19.10;55.73;100408.50;5099678;28;20440;-82
2023/07/26 08:12:39;;;;;;;6.10;2.47;;;;;;;18.87;56.08;100412.53;5096789;28;20459;-82
2023/07/26 08:15:12;;;;;;;7.67;2.17;;;;;;;18.59;57.60;100405.53;5095938;28;20430;-81
2023/07/26 08:17:44;;;;;;;4.90;2.23;;;;;;;18.92;57.08;100415.28;5121390;28;20420;-81
2023/07/26 08:20:22;;;;;;;2.37;1.70;;;;;;;18.66;57.81;100411.63;5096638;28;20416;-80
2023/07/26 08:22:57;;;;;;;3.70;2.70;;;;;;;18.61;56.96;100408.84;5099156;28;20443;-81
2023/07/26 08:25:30;;;;;;;3.57;2.20;;;;;;;18.64;58.77;100415.69;5091385;28;20803;-81
2023/07/26 08:28:02;;;;;;;3.30;2.13;;;;;;;18.93;58.79;100414.19;5084777;28;20465;-81
2023/07/26 08:30:34;;;;;;;4.57;2.50;;;;;;;19.47;57.61;100411.06;5091302;28;20409;-82
2023/07/26 08:33:15;;;;;;;2.20;1.70;;;;;;;19.48;55.60;100413.53;5100913;28;20438;-81
2023/07/26 08:35:51;;;;;;;6.53;2.60;;;;;;;19.74;57.03;100416.31;5100160;28;20409;-82
2023/07/26 08:38:23;;;;;;;4.70;1.83;;;;;;;20.22;54.94;100417.66;5089277;28;20447;-82
2023/07/26 08:40:58;;;;;;;2.40;1.83;;;;;;;19.72;55.34;100418.50;5090488;28;20488;-81
2023/07/26 08:43:32;;;;;;;4.13;1.83;;;;;;;19.33;56.95;100421.69;5094449;28;20427;-82
2023/07/26 08:46:03;;;;;;;3.60;1.90;;;;;;;19.21;57.17;100421.13;5088132;28;20919;-82
2023/07/26 08:48:41;;;;;;;4.37;2.00;;;;;;;19.23;56.64;100427.16;5082096;28;20508;-82
2023/07/26 08:52:02;;;;;;;5.20;2.90;;;;;;;19.49;54.93;100419.84;5089355;28;20438;-81
2023/07/26 08:54:37;;;;;;;6.10;4.20;;;;;;;19.40;55.52;100416.78;5085922;28;20428;-81
2023/07/26 08:57:41;;;;;;;5.83;2.50;;;;;;;19.65;54.06;100417.94;5100608;28;20407;-80
2023/07/26 09:00:33;;;;;;;2.50;2.10;;;;;;;19.55;53.79;100415.19;5078811;28;20949;-82
2023/07/26 09:03:16;;;;;;;2.83;2.03;;;;;;;19.88;53.92;100417.41;5079648;28;20450;-82
2023/07/26 09:14:18;;;;;;;2.53;2.20;;;;;;;19.90;54.68;100415.19;5020282;28;20436;-84
2023/07/26 09:22:26;;;;;;;2.03;1.70;;;;;;;21.60;50.07;100425.06;5083076;28;20510;-81
2023/07/26 09:26:12;;;;;;;4.57;1.73;;;;;;;20.87;49.99;100426.81;5082514;28;20435;-80
2023/07/26 09:29:34;;;;;;;2.90;1.83;;;;;;;21.54;47.72;100418.78;5076444;28;20451;-81
2023/07/26 09:32:47;;;;;;;6.30;3.30;;;;;;;22.32;47.05;100420.59;5094482;28;20404;-82
2023/07/26 09:47:17;;;;;;;8.23;2.43;;;;;;;21.03;47.67;100420.97;5079496;28;20439;-82
2023/07/26 09:50:38;;;;;;;4.00;2.20;;;;;;;20.81;48.60;100426.88;5063697;28;20457;-82
2023/07/26 09:58:33;;;;;;;2.33;2.00;;;;;;;20.74;48.78;100415.34;5044356;28;20498;-82
2023/07/26 10:05:39;;;;;;;2.57;1.90;;;;;;;21.83;47.89;100410.59;4961348;28;20513;-82
2023/07/26 10:08:10;;;;;;;4.50;2.00;;;;;;;22.03;46.99;100415.09;5029172;28;20456;-82
2023/07/26 10:10:42;;;;;;;5.70;2.50;;;;;;;21.75;45.74;100413.94;5043345;28;20421;-82
2023/07/26 10:13:18;;;;;;;3.00;1.77;;;;;;;20.99;45.70;100405.31;5042555;28;20482;-82
2023/07/26 10:16:02;;;;;;;4.50;1.43;;;;;;;20.80;47.05;100407.91;5032268;28;20641;-82
2023/07/26 10:18:34;;;;;;;3.10;1.57;;;;;;;20.60;48.15;100405.22;5046636;28;20456;-82
2023/07/26 10:21:10;;;;;;;3.50;2.43;;;;;;;20.59;47.48;100400.81;5051336;28;20431;-81
2023/07/26 10:23:44;;;;;;;2.73;2.07;;;;;;;20.77;46.74;100402.94;5057645;28;20433;-81
2023/07/26 10:26:14;;;;;;;2.70;2.40;;;;;;;21.47;45.92;100400.94;5028368;28;20500;-82
2023/07/26 10:28:48;;;;;;;4.77;1.87;;;;;;;22.20;45.06;100395.38;5017935;28;20535;-82
2023/07/26 10:31:24;;;;;;;3.70;2.00;;;;;;;21.92;44.92;100397.00;5049632;28;20482;-82
2023/07/26 10:33:55;;;;;;;8.13;1.77;;;;;;;21.63;45.76;100405.25;5033289;28;20843;-81
2023/07/26 10:36:32;;;;;;;4.07;1.97;;;;;;;22.33;45.90;100402.97;5031358;28;20922;-81
2023/07/26 10:39:09;;;;;;;5.23;3.33;;;;;;;22.49;44.14;100390.66;5064195;28;20439;-82
2023/07/26 10:41:50;;;;;;;4.50;2.23;;;;;;;22.95;42.93;100393.69;5079766;28;20424;-82
2023/07/26 10:44:30;;;;;;;5.63;2.13;;;;;;;22.76;42.63;100396.44;5076767;28;20512;-81
2023/07/26 10:47:14;;;;;;;3.13;2.23;;;;;;;22.87;42.47;100386.09;5088575;28;20427;-79
2023/07/26 10:49:48;;;;;;;5.00;2.30;;;;;;;23.06;41.71;100394.38;5076432;28;20476;-82
2023/07/26 10:52:34;;;;;;;4.10;2.07;;;;;;;23.02;42.71;100388.66;5078675;28;20430;-81
2023/07/26 10:55:32;;;;;;;10.27;1.90;;;;;;;23.78;41.18;100379.22;5086242;28;20423;-81
2023/07/26 10:58:34;;;;;;;3.43;1.70;;;;;;;23.65;41.23;100386.34;5074258;28;20448;-81
2023/07/26 11:04:30;;;;;;;5.60;2.43;;;;;;;22.57;43.51;100386.44;5084062;28;20516;-81
2023/07/26 11:07:21;;;;;;;3.00;1.97;;;;;;;20.82;47.78;100394.66;5093056;28;20403;-82
2023/07/26 11:10:17;;;;;;;4.33;1.70;;;;;;;20.54;48.57;100400.81;5075129;28;20474;-82
2023/07/26 11:21:29;;;;;;;3.60;1.87;;;;;;;21.61;41.37;100391.75;5083260;28;20433;-82
2023/07/26 11:24:12;;;;;;;2.87;1.67;;;;;;;21.51;41.87;100396.50;5083541;28;20453;-81
2023/07/26 11:26:46;;;;;;;3.37;2.40;;;;;;;21.85;41.78;100393.75;5071969;28;20426;-82
2023/07/26 11:29:30;;;;;;;3.37;2.40;;;;;;;21.95;41.92;100394.53;5093247;28;20472;-81
2023/07/26 11:32:10;;;;;;;2.87;1.93;;;;;;;22.12;42.97;100385.84;5083929;28;20421;-81
2023/07/26 11:34:40;;;;;;;2.90;2.40;;;;;;;21.81;44.27;100390.75;5060360;28;20762;-81
2023/07/26 11:37:21;;;;;;;3.90;1.70;;;;;;;21.64;45.16;100384.84;5099635;28;20480;-81
2023/07/26 11:40:09;;;;;;;4.30;2.20;;;;;;;21.08;46.89;100382.44;5084072;28;20961;-82
2023/07/26 11:42:39;;;;;;;3.93;2.10;;;;;;;21.15;46.73;100383.00;5078571;28;20937;-82
2023/07/26 11:45:14;;;;;;;6.50;4.43;;;;;;;21.33;48.10;100387.00;5080765;28;20420;-82
2023/07/26 11:47:48;;;;;;;3.60;2.27;;;;;;;22.13;46.33;100381.13;5088331;28;20411;-82
2023/07/26 11:50:30;;;;;;;2.93;2.33;;;;;;;21.86;45.53;100381.63;5101109;28;20539;-82
2023/07/26 11:53:06;;;;;;;3.27;1.47;;;;;;;21.32;45.18;100374.34;5103747;28;20410;-80
2023/07/26 11:55:42;;;;;;;3.27;2.37;;;;;;;21.15;46.71;100379.41;5107415;28;20391;-81
2023/07/26 11:58:22;;;;;;;3.17;2.13;;;;;;;21.12;47.93;100378.00;5105114;28;20778;-82
2023/07/26 12:01:49;;;;;;;5.13;2.73;;;;;;;21.19;48.92;100384.06;5089359;28;20430;-82
2023/07/26 12:09:30;;;;;;;4.00;2.60;;;;;;;22.18;45.79;100378.31;5097877;28;20411;-81
2023/07/26 12:12:27;;;;;;;3.80;1.87;;;;;;;23.11;42.25;100381.34;5035931;28;20449;-80
2023/07/26 12:15:15;;;;;;;4.10;1.90;;;;;;;23.66;41.46;100368.66;5118198;28;20421;-81
2023/07/26 12:18:10;;;;;;;4.70;2.47;;;;;;;24.38;40.07;100371.00;5081410;28;20415;-80
2023/07/26 12:20:59;;;;;;;3.13;1.80;;;;;;;24.09;41.28;100368.47;5082027;28;20426;-81
2023/07/26 12:23:51;;;;;;;4.60;2.57;;;;;;;23.25;42.74;100382.25;5081949;28;20410;-80
2023/07/26 12:26:25;;;;;;;3.40;2.03;;;;;;;22.56;42.94;100382.84;5072935;28;20430;-81
2023/07/26 12:28:56;;;;;;;3.93;2.03;;;;;;;22.76;42.60;100377.13;5073689;28;20409;-81
2023/07/26 12:31:28;;;;;;;4.63;2.53;;;;;;;23.16;42.88;100369.41;5096769;28;20415;-79
2023/07/26 12:33:59;;;;;;;5.63;2.30;;;;;;;23.67;42.89;100364.75;5097073;28;20403;-81
2023/07/26 12:36:47;;;;;;;8.17;2.50;;;;;;;23.70;41.96;100371.63;5080445;28;20419;-81
2023/07/26 12:39:24;;;;;;;2.83;2.10;;;;;;;23.55;41.95;100369.94;5090054;28;20499;-81
2023/07/26 12:41:55;;;;;;;4.30;1.70;;;;;;;24.02;40.49;100356.97;5099112;28;20417;-80
2023/07/26 12:44:37;;;;;;;4.17;3.17;;;;;;;24.44;39.60;100369.78;5066861;28;20902;-80
2023/07/26 12:47:07;;;;;;;3.97;2.27;;;;;;;22.09;45.62;100362.44;5070221;28;20404;-81
2023/07/26 12:49:58;;;;;;;5.37;2.10;;;;;;;21.04;49.17;100375.03;5071928;28;20474;-82
2023/07/26 12:52:30;;;;;;;6.70;2.70;;;;;;;21.04;49.10;100381.38;5088331;28;20417;-82
2023/07/26 12:55:14;;;;;;;4.10;2.23;;;;;;;20.56;48.47;100368.41;5082829;28;20990;-81
2023/07/26 12:57:59;;;;;;;6.83;3.00;;;;;;;20.46;48.88;100373.94;5081600;28;20435;-81
2023/07/26 13:00:31;;;;;;;5.50;1.73;;;;;;;20.58;49.83;100378.00;5073624;28;20428;-81
2023/07/26 13:03:03;;;;;;;8.47;3.10;;;;;;;20.47;50.60;100373.66;5083788;28;20420;-81
2023/07/26 13:05:41;;;;;;;3.80;2.70;;;;;;;20.47;51.44;100381.06;5083349;28;20549;-82
2023/07/26 13:08:19;;;;;;;6.50;2.80;;;;;;;20.24;51.70;100383.28;5091346;28;20436;-80
2023/07/26 13:11:02;;;;;;;5.50;2.90;;;;;;;20.30;51.99;100398.69;5082083;28;20458;-81
2023/07/26 13:13:33;;;;;;;4.50;2.37;;;;;;;20.27;53.34;100412.97;5093609;28;20537;-80
2023/07/26 13:16:05;;;;;;;3.30;2.03;;;;;;;19.93;52.50;100422.91;5091903;28;20786;-81
2023/07/26 13:18:39;;;;;;;3.17;2.33;;;;;;;18.64;62.95;100424.75;5083494;28;20455;-83
2023/07/26 13:21:10;;;;;;;12.13;2.60;;;;;;;17.82;69.97;100421.69;5082307;28;20426;-81
2023/07/26 13:23:51;;;;;;;4.00;2.57;;;;;;;17.51;71.57;100420.59;5089021;28;20938;-82
2023/07/26 13:26:34;;;;;;;4.07;2.47;;;;;;;17.30;68.18;100418.72;5081288;28;20434;-83
2023/07/26 13:38:02;;;;;;;3.03;1.83;;;;;;;20.04;69.75;100416.31;5074418;28;20459;-81
2023/07/26 14:01:23;;;;;;;4.70;2.20;;;;;;;20.22;59.64;100447.88;5050564;28;20440;-81
2023/07/26 14:04:14;;;;;;;2.50;1.77;;;;;;;19.38;57.64;100451.91;5067835;28;20406;-82
2023/07/26 14:07:17;;;;;;;3.17;2.10;;;;;;;18.95;58.69;100458.63;5063375;28;20429;-81
2023/07/26 14:10:08;;;;;;;3.37;3.07;;;;;;;18.62;59.23;100473.53;5045616;28;20541;-81
2023/07/26 14:12:41;;;;;;;6.30;2.17;;;;;;;18.22;62.83;100481.44;5057861;28;20403;-82
2023/07/26 14:15:23;;;;;;;4.53;2.83;;;;;;;17.60;73.29;100490.19;5046800;28;20406;-82
2023/07/26 14:18:57;;;;;;;3.77;2.37;;;;;;;17.03;77.99;100481.59;5053574;28;20437;-82
2023/07/26 14:31:36;;;;;;;;;;;;;;;;;;;;;
2023/07/26 14:35:47;;;;;;;3.83;2.47;;;;;;;18.00;74.51;100477.97;4851772;29;20519;-82
2023/07/26 14:55:38;;;;;;;5.17;2.50;;;;;;;20.02;61.90;100489.06;4891348;28;20429;-82
2023/07/26 14:58:18;;;;;;;2.63;1.77;;;;;;;19.52;56.74;100493.38;4976039;28;20468;-81
2023/07/26 15:01:15;;;;;;;2.17;1.60;;;;;;;18.96;55.77;100493.19;4975509;28;20395;-81
2023/07/26 15:04:28;;;;;;;2.60;1.70;;;;;;;18.98;58.57;100501.09;4978829;28;20421;-81
2023/07/26 15:07:39;;;;;;;2.80;2.10;;;;;;;18.43;58.30;100507.91;4980449;28;20461;-82
2023/07/26 15:10:23;;;;;;;2.33;2.03;;;;;;;18.18;59.13;100515.91;4968451;29;20479;-82
2023/07/26 15:12:54;;;;;;;2.83;1.60;;;;;;;18.08;56.96;100507.63;4957127;29;20422;-82
2023/07/26 15:15:40;;;;;;;3.33;2.37;;;;;;;18.16;61.85;100505.22;4966257;29;20436;-83
2023/07/26 15:18:38;;;;;;;3.37;2.47;;;;;;;18.32;64.41;100492.47;4968416;29;20410;-82
2023/07/26 15:21:10;;;;;;;2.23;1.50;;;;;;;18.53;60.75;100504.41;5054894;28;20470;-81
2023/07/26 15:24:26;;;;;;;2.90;1.87;;;;;;;18.89;62.54;100508.19;5048952;28;20455;-82
2023/07/26 15:27:18;;;;;;;2.10;1.83;;;;;;;18.97;60.55;100502.22;5057678;28;20879;-81
2023/07/26 15:30:07;;;;;;;2.10;1.63;;;;;;;19.05;62.70;100501.72;5034112;28;20928;-82
2023/07/26 15:32:44;;;;;;;1.97;1.37;;;;;;;18.97;58.11;100500.31;5021019;28;20396;-81
2023/07/26 15:35:21;;;;;;;3.20;1.80;;;;;;;18.98;58.09;100501.09;5039331;28;20410;-81
2023/07/26 15:37:56;;;;;;;2.60;2.20;;;;;;;18.84;57.51;100505.44;5039105;28;20993;-81
2023/07/26 15:40:47;;;;;;;3.50;2.87;;;;;;;18.96;58.18;100498.66;5040365;28;20486;-82
2023/07/26 15:44:00;;;;;;;3.50;2.10;;;;;;;18.80;57.83;100499.66;5037001;28;20432;-82
2023/07/26 15:47:03;;;;;;;3.60;1.90;;;;;;;18.71;57.85;100493.03;5031552;28;20421;-81
2023/07/26 15:49:55;;;;;;;4.70;1.67;;;;;;;19.00;59.27;100486.06;5026085;28;20514;-81
2023/07/26 15:52:42;;;;;;;3.53;1.87;;;;;;;19.20;58.94;100489.97;5037665;28;20446;-81
2023/07/26 15:55:26;;;;;;;3.93;2.60;;;;;;;19.43;59.21;100487.59;5035971;28;20426;-82
2023/07/26 15:57:58;;;;;;;3.67;2.60;;;;;;;19.24;58.54;100489.16;5043969;28;20411;-82
2023/07/26 16:00:33;;;;;;;2.83;1.70;;;;;;;19.12;56.54;100488.59;5065918;28;20518;-82
2023/07/26 16:03:05;;;;;;;2.97;1.87;;;;;;;19.20;56.71;100489.97;5041317;28;20534;-82
2023/07/26 16:06:12;;;;;;;2.80;1.97;;;;;;;19.08;56.03;100485.53;5075631;28;20904;-82
2023/07/26 16:08:48;;;;;;;2.57;1.73;;;;;;;19.20;56.53;100487.22;5097015;22;20557;-82
2023/07/26 16:12:24;;;;;;;3.23;1.53;;;;;;;19.27;57.08;100482.31;5105017;28;20505;-82
2023/07/26 16:18:50;;;;;;;4.00;1.50;;;;;;;19.69;55.48;100490.41;5009233;28;20488;-81
2023/07/26 16:27:57;;;;;;;2.73;2.10;;;;;;;20.37;53.19;100498.19;5086783;28;20493;-82
2023/07/26 16:34:32;;;;;;;2.37;1.87;;;;;;;20.96;48.91;100494.72;5039837;28;20450;-81
2023/07/26 16:37:39;;;;;;;3.33;2.40;;;;;;;20.56;49.36;100501.16;5077849;28;20841;-82
2023/07/26 16:40:34;;;;;;;;;;;;;;;;;;;;;
2023/07/26 16:43:53;;;;;;;3.73;1.83;;;;;;;21.39;49.29;100503.41;5051989;28;20429;-82
2023/07/26 16:47:12;;;;;;;1.90;1.63;;;;;;;21.93;46.79;100493.16;5087782;28;20427;-82
2023/07/26 16:50:14;;;;;;;3.50;1.63;;;;;;;22.04;46.27;100500.22;5078615;28;20450;-82
2023/07/26 16:53:06;;;;;;;2.20;1.83;;;;;;;22.44;46.42;100499.06;5076189;28;20454;-82
2023/07/26 16:55:56;;;;;;;5.40;2.23;;;;;;;23.37;45.71;100497.78;5062677;28;20934;-82
2023/07/26 16:58:25;;;;;;;3.07;2.50;;;;;;;22.59;45.12;100500.84;5067102;28;20429;-82
2023/07/26 17:01:06;;;;;;;2.23;1.90;;;;;;;22.93;45.73;100501.63;5069028;28;20405;-82
2023/07/26 17:03:36;;;;;;;4.10;3.70;;;;;;;23.68;44.46;100490.72;5075155;28;20430;-82
2023/07/26 17:06:11;;;;;;;2.90;1.93;;;;;;;23.40;43.15;100495.22;5089720;28;20406;-81
2023/07/26 17:08:45;;;;;;;2.30;1.70;;;;;;;23.30;44.27;100498.13;5091047;28;20662;-82
2023/07/26 17:11:48;;;;;;;2.10;1.50;;;;;;;22.89;44.79;100500.56;5084489;28;20496;-81
2023/07/26 17:19:13;;;;;;;3.20;2.00;;;;;;;24.12;43.07;100495.00;5022095;28;20455;-82
2023/07/26 17:21:53;;;;;;;3.33;2.40;;;;;;;24.21;43.10;100493.22;5061033;28;20792;-82
2023/07/26 17:24:32;;;;;;;3.73;1.87;;;;;;;24.26;42.20;100495.91;5069934;28;20840;-83
2023/07/26 17:27:08;;;;;;;2.87;2.17;;;;;;;23.40;43.23;100497.16;5069079;28;20455;-81
2023/07/26 17:30:32;;;;;;;3.97;2.57;;;;;;;22.99;43.66;100498.81;5085653;28;20477;-80
2023/07/26 17:33:33;;;;;;;2.43;1.50;;;;;;;23.14;43.23;100490.34;5083681;28;20438;-82
2023/07/26 17:36:20;;;;;;;2.33;1.70;;;;;;;23.26;42.21;100487.97;5087056;28;20457;-82
2023/07/26 17:42:05;;;;;;;2.93;1.53;;;;;;;23.71;42.89;100501.19;5071672;28;20417;-81
2023/07/26 17:44:45;;;;;;;4.23;2.83;;;;;;;23.58;44.13;100498.31;5083795;28;20418;-83
2023/07/26 17:50:39;;;;;;;3.10;2.27;;;;;;;23.42;42.83;100511.50;5053449;28;20486;-81
2023/07/26 17:53:28;;;;;;;3.50;3.00;;;;;;;23.21;43.37;100501.84;5058330;28;20552;-82
2023/07/26 17:56:49;;;;;;;3.30;2.73;;;;;;;22.64;43.53;100505.50;5070245;28;20450;-82
2023/07/26 17:59:40;;;;;;;3.10;1.97;;;;;;;21.72;45.37;100508.16;5070996;28;20466;-81
2023/07/26 18:02:36;;;;;;;2.87;2.00;;;;;;;20.98;47.97;100509.03;5055722;28;20438;-83
2023/07/26 18:05:23;;;;;;;2.80;2.00;;;;;;;20.10;49.02;100500.34;5076106;28;20613;-81
2023/07/26 18:08:15;;;;;;;2.60;1.43;;;;;;;19.55;51.04;100511.25;5062614;28;20454;-82
2023/07/26 18:11:08;;;;;;;2.43;1.83;;;;;;;19.24;52.62;100505.63;5049402;28;20953;-81
2023/07/26 18:13:49;;;;;;;3.33;1.70;;;;;;;18.88;54.30;100507.38;5058418;28;20426;-81
2023/07/26 18:16:20;;;;;;;4.77;1.97;;;;;;;18.40;55.88;100505.66;5088170;28;20422;-81
2023/07/26 18:19:08;;;;;;;3.10;2.40;;;;;;;18.21;56.87;100509.91;5097296;28;20486;-81
2023/07/26 18:21:46;;;;;;;3.23;2.40;;;;;;;17.98;57.63;100513.00;5105372;28;20436;-81
2023/07/26 18:24:19;;;;;;;4.20;3.30;;;;;;;17.76;59.80;100519.38;5095256;28;20404;-81
2023/07/26 18:26:51;;;;;;;4.00;3.27;;;;;;;17.57;59.43;100523.50;5093705;28;20401;-81
2023/07/26 18:29:26;;;;;;;3.60;2.63;;;;;;;17.48;59.19;100513.25;5094831;28;20447;-82
2023/07/26 18:32:31;;;;;;;3.83;2.73;;;;;;;17.38;60.75;100519.44;5083762;28;20458;-82
2023/07/26 18:35:22;;;;;;;3.50;2.63;;;;;;;17.16;62.10;100527.69;5082336;28;20416;-81
2023/07/26 18:37:55;;;;;;;5.10;3.17;;;;;;;16.97;63.16;100517.31;5079543;28;20442;-83
2023/07/26 18:40:48;;;;;;;3.30;3.00;;;;;;;16.84;64.12;100516.59;5070833;28;20416;-82
2023/07/26 18:43:55;;;;;;;3.37;2.80;;;;;;;16.71;65.23;100527.88;5078668;28;20419;-82
2023/07/26 18:46:37;;;;;;;2.63;2.23;;;;;;;16.71;64.57;100530.59;5055109;28;20456;-83
2023/07/26 18:49:35;;;;;;;3.60;2.70;;;;;;;16.56;65.50;100535.81;5078673;28;20949;-82
2023/07/26 18:52:16;;;;;;;3.93;2.80;;;;;;;16.43;65.79;100545.19;5068120;28;20474;-81
2023/07/26 18:54:49;;;;;;;4.60;2.77;;;;;;;16.38;66.59;100530.63;5078207;28;20420;-83
2023/07/26 18:57:58;;;;;;;8.00;3.97;;;;;;;16.25;67.18;100542.72;5067790;28;20435;-82
2023/07/26 19:25:33;;;;;;;5.60;2.70;;;;;;;16.29;69.21;100564.88;4861114;29;20531;-82
2023/07/26 19:28:29;;;;;;;3.90;3.00;;;;;;;16.41;69.37;100562.91;5048727;28;20430;-82
2023/07/26 19:31:48;;;;;;;4.40;3.27;;;;;;;16.53;69.07;100564.47;5056030;28;20433;-81
2023/07/26 19:34:27;;;;;;;4.80;3.80;;;;;;;16.70;68.55;100559.00;5101428;28;20442;-82
2023/07/26 19:41:28;;;;;;;4.00;2.83;;;;;;;16.89;67.81;100560.38;5092177;28;20472;-82
2023/07/26 19:44:11;;;;;;;4.00;2.80;;;;;;;17.09;67.03;100565.28;5039157;28;20405;-82
2023/07/26 19:46:53;;;;;;;5.10;3.80;;;;;;;17.02;66.99;100561.09;5086112;28;20403;-82
2023/07/26 19:49:52;;;;;;;4.87;3.53;;;;;;;17.02;66.96;100558.38;5086499;28;20452;-82
2023/07/26 21:40:51;;;;;;;2.57;2.13;;;;;;;16.13;68.61;100579.31;1320167;26;21584;-81
2023/07/26 21:43:43;;;;;;;7.00;2.10;;;;;;;16.12;68.61;100585.88;5040178;28;20410;-82
2023/07/26 21:46:41;;;;;;;2.37;2.17;;;;;;;16.09;69.10;100587.19;5027362;28;20810;-82
2023/07/26 21:49:38;;;;;;;2.57;2.30;;;;;;;16.09;69.65;100581.72;5034689;28;20481;-82
2023/07/26 21:52:29;;;;;;;2.30;2.10;;;;;;;15.99;70.50;100590.56;5015892;28;20439;-81
2023/07/26 21:55:18;;;;;;;4.80;2.37;;;;;;;15.92;71.44;100575.44;5033831;28;20429;-80
2023/07/26 21:58:16;;;;;;;2.27;2.07;;;;;;;15.87;71.28;100581.63;5018301;28;20416;-81
2023/07/26 22:01:33;;;;;;;7.03;2.30;;;;;;;15.81;72.31;100588.03;5028789;28;20950;-82
2023/07/26 22:09:02;;;;;;;2.50;2.30;;;;;;;15.76;73.82;100589.84;4982510;28;20442;-80
2023/07/26 22:12:10;;;;;;;4.13;2.40;;;;;;;15.81;73.97;100589.94;4907686;28;20529;-82
2023/07/26 22:15:33;;;;;;;4.03;2.37;;;;;;;15.74;74.09;100583.78;4983213;28;20429;-81